<?xml version="1.0" encoding="UTF-8" standalone="no" ?>
<gpx xmlns="http://www.topografix.com/GPX/1/1" xmlns:xsi="http://www.w3.org/2001/XMLSchema-instance" xsi:schemaLocation="http://www.topografix.com/GPX/1/1 http://www.topografix.com/GPX/1/1/gpx.xsd" version="1.1" creator="VisuGPX - https://www.visugpx.com">
  <metadata>
    <name>Capu di Muru - Coti-Chiavari R1</name>
  </metadata>
  <wpt lat="41.74584" lon="8.69646">
    <ele>110</ele>
    <name><![CDATA[Aire de stationnement en sortie du hameau de casci]]></name>
  </wpt>
  <wpt lat="41.74541" lon="8.69357">
    <ele>110</ele>
    <name><![CDATA[Bifurcation. Prendre à gauche.]]></name>
  </wpt>
  <wpt lat="41.74544" lon="8.68292">
    <ele>82</ele>
    <name><![CDATA[Bifurcation. Prendre à droite vers la tour gènoise]]></name>
  </wpt>
  <wpt lat="41.74962" lon="8.67634">
    <ele>93</ele>
    <name><![CDATA[Pour quitter la tour, prendre le chemin montant.]]></name>
  </wpt>
  <wpt lat="41.74756" lon="8.67491">
    <ele>138</ele>
    <name><![CDATA[Suivre le chemin indiqué par une balise sur poteau]]></name>
  </wpt>
  <wpt lat="41.7423" lon="8.67889">
    <ele>13</ele>
    <name><![CDATA[Carrefour en T. Prendre à gauche le sentier montan]]></name>
  </wpt>
  <wpt lat="41.74565" lon="8.68042">
    <ele>108</ele>
    <name><![CDATA[Carrefour. Prendre à droite.]]></name>
  </wpt>
  <wpt lat="41.74581" lon="8.69648">
    <ele>109</ele>
    <name><![CDATA[Arrivée : aire de stationnement sortie hameau Casc]]></name>
  </wpt>
  <trk>
    <name><![CDATA[Tour de la Presqu’île de Capu di Muru à Coti-Chiavari]]></name>
    <trkseg>
      <trkpt lat="41.74584" lon="8.69646">
        <ele>110</ele>
        <time>2021-07-05T14:27:24+02:00</time>
      </trkpt>
      <trkpt lat="41.74584" lon="8.69611">
        <ele>111</ele>
        <time>2021-07-05T14:27:29+02:00</time>
      </trkpt>
      <trkpt lat="41.74537" lon="8.69567">
        <ele>106</ele>
        <time>2021-07-05T14:27:34+02:00</time>
      </trkpt>
      <trkpt lat="41.74527" lon="8.69536">
        <ele>107</ele>
        <time>2021-07-05T14:27:39+02:00</time>
      </trkpt>
      <trkpt lat="41.74536" lon="8.69482">
        <ele>113</ele>
        <time>2021-07-05T14:27:44+02:00</time>
      </trkpt>
      <trkpt lat="41.7455" lon="8.69442">
        <ele>117</ele>
        <time>2021-07-05T14:27:49+02:00</time>
      </trkpt>
      <trkpt lat="41.74536" lon="8.69408">
        <ele>113</ele>
        <time>2021-07-05T14:27:54+02:00</time>
      </trkpt>
      <trkpt lat="41.74533" lon="8.6939">
        <ele>111</ele>
        <time>2021-07-05T14:27:59+02:00</time>
      </trkpt>
      <trkpt lat="41.74536" lon="8.69367">
        <ele>109</ele>
        <time>2021-07-05T14:28:04+02:00</time>
      </trkpt>
      <trkpt lat="41.74541" lon="8.69357">
        <ele>110</ele>
        <time>2021-07-05T14:28:09+02:00</time>
      </trkpt>
      <trkpt lat="41.74606" lon="8.69287">
        <ele>119</ele>
        <time>2021-07-05T14:28:14+02:00</time>
      </trkpt>
      <trkpt lat="41.74614" lon="8.6927">
        <ele>118</ele>
        <time>2021-07-05T14:28:19+02:00</time>
      </trkpt>
      <trkpt lat="41.74606" lon="8.69266">
        <ele>117</ele>
        <time>2021-07-05T14:28:24+02:00</time>
      </trkpt>
      <trkpt lat="41.74597" lon="8.69266">
        <ele>115</ele>
        <time>2021-07-05T14:28:29+02:00</time>
      </trkpt>
      <trkpt lat="41.7459" lon="8.69274">
        <ele>115</ele>
        <time>2021-07-05T14:28:34+02:00</time>
      </trkpt>
      <trkpt lat="41.74568" lon="8.69255">
        <ele>110</ele>
        <time>2021-07-05T14:28:39+02:00</time>
      </trkpt>
      <trkpt lat="41.74557" lon="8.6923">
        <ele>110</ele>
        <time>2021-07-05T14:28:44+02:00</time>
      </trkpt>
      <trkpt lat="41.74526" lon="8.69163">
        <ele>113</ele>
        <time>2021-07-05T14:28:49+02:00</time>
      </trkpt>
      <trkpt lat="41.74513" lon="8.69129">
        <ele>113</ele>
        <time>2021-07-05T14:28:54+02:00</time>
      </trkpt>
      <trkpt lat="41.74513" lon="8.69115">
        <ele>114</ele>
        <time>2021-07-05T14:28:59+02:00</time>
      </trkpt>
      <trkpt lat="41.74521" lon="8.69016">
        <ele>117</ele>
        <time>2021-07-05T14:29:04+02:00</time>
      </trkpt>
      <trkpt lat="41.74526" lon="8.6897">
        <ele>116</ele>
        <time>2021-07-05T14:29:09+02:00</time>
      </trkpt>
      <trkpt lat="41.74534" lon="8.68919">
        <ele>114</ele>
        <time>2021-07-05T14:29:14+02:00</time>
      </trkpt>
      <trkpt lat="41.74548" lon="8.68859">
        <ele>112</ele>
        <time>2021-07-05T14:29:19+02:00</time>
      </trkpt>
      <trkpt lat="41.7457" lon="8.68805">
        <ele>115</ele>
        <time>2021-07-05T14:29:24+02:00</time>
      </trkpt>
      <trkpt lat="41.7457" lon="8.68783">
        <ele>115</ele>
        <time>2021-07-05T14:29:29+02:00</time>
      </trkpt>
      <trkpt lat="41.7455" lon="8.68755">
        <ele>112</ele>
        <time>2021-07-05T14:29:34+02:00</time>
      </trkpt>
      <trkpt lat="41.7454" lon="8.68734">
        <ele>111</ele>
        <time>2021-07-05T14:29:39+02:00</time>
      </trkpt>
      <trkpt lat="41.74535" lon="8.68717">
        <ele>110</ele>
        <time>2021-07-05T14:29:44+02:00</time>
      </trkpt>
      <trkpt lat="41.7453" lon="8.68666">
        <ele>111</ele>
        <time>2021-07-05T14:29:49+02:00</time>
      </trkpt>
      <trkpt lat="41.74523" lon="8.68644">
        <ele>110</ele>
        <time>2021-07-05T14:29:54+02:00</time>
      </trkpt>
      <trkpt lat="41.74528" lon="8.6862">
        <ele>110</ele>
        <time>2021-07-05T14:29:59+02:00</time>
      </trkpt>
      <trkpt lat="41.74504" lon="8.68563">
        <ele>107</ele>
        <time>2021-07-05T14:30:04+02:00</time>
      </trkpt>
      <trkpt lat="41.74498" lon="8.68523">
        <ele>106</ele>
        <time>2021-07-05T14:30:09+02:00</time>
      </trkpt>
      <trkpt lat="41.74479" lon="8.68512">
        <ele>101</ele>
        <time>2021-07-05T14:30:14+02:00</time>
      </trkpt>
      <trkpt lat="41.74464" lon="8.68479">
        <ele>95</ele>
        <time>2021-07-05T14:30:19+02:00</time>
      </trkpt>
      <trkpt lat="41.74462" lon="8.68455">
        <ele>92</ele>
        <time>2021-07-05T14:30:24+02:00</time>
      </trkpt>
      <trkpt lat="41.74469" lon="8.68419">
        <ele>91</ele>
        <time>2021-07-05T14:30:29+02:00</time>
      </trkpt>
      <trkpt lat="41.74481" lon="8.68402">
        <ele>90</ele>
        <time>2021-07-05T14:30:34+02:00</time>
      </trkpt>
      <trkpt lat="41.74514" lon="8.68389">
        <ele>89</ele>
        <time>2021-07-05T14:30:39+02:00</time>
      </trkpt>
      <trkpt lat="41.74532" lon="8.68374">
        <ele>85</ele>
        <time>2021-07-05T14:30:44+02:00</time>
      </trkpt>
      <trkpt lat="41.74544" lon="8.68292">
        <ele>82</ele>
        <time>2021-07-05T14:30:49+02:00</time>
      </trkpt>
      <trkpt lat="41.74575" lon="8.68252">
        <ele>86</ele>
        <time>2021-07-05T14:30:54+02:00</time>
      </trkpt>
      <trkpt lat="41.74586" lon="8.68234">
        <ele>89</ele>
        <time>2021-07-05T14:30:59+02:00</time>
      </trkpt>
      <trkpt lat="41.74636" lon="8.68191">
        <ele>78</ele>
        <time>2021-07-05T14:31:04+02:00</time>
      </trkpt>
      <trkpt lat="41.74655" lon="8.68146">
        <ele>78</ele>
        <time>2021-07-05T14:31:09+02:00</time>
      </trkpt>
      <trkpt lat="41.74663" lon="8.68105">
        <ele>83</ele>
        <time>2021-07-05T14:31:14+02:00</time>
      </trkpt>
      <trkpt lat="41.74667" lon="8.68077">
        <ele>86</ele>
        <time>2021-07-05T14:31:19+02:00</time>
      </trkpt>
      <trkpt lat="41.74666" lon="8.68056">
        <ele>90</ele>
        <time>2021-07-05T14:31:24+02:00</time>
      </trkpt>
      <trkpt lat="41.74682" lon="8.68055">
        <ele>85</ele>
        <time>2021-07-05T14:31:29+02:00</time>
      </trkpt>
      <trkpt lat="41.74705" lon="8.68016">
        <ele>86</ele>
        <time>2021-07-05T14:31:34+02:00</time>
      </trkpt>
      <trkpt lat="41.7472" lon="8.67976">
        <ele>89</ele>
        <time>2021-07-05T14:31:39+02:00</time>
      </trkpt>
      <trkpt lat="41.7472" lon="8.67963">
        <ele>90</ele>
        <time>2021-07-05T14:31:44+02:00</time>
      </trkpt>
      <trkpt lat="41.74718" lon="8.67946">
        <ele>93</ele>
        <time>2021-07-05T14:31:49+02:00</time>
      </trkpt>
      <trkpt lat="41.74714" lon="8.67936">
        <ele>96</ele>
        <time>2021-07-05T14:31:54+02:00</time>
      </trkpt>
      <trkpt lat="41.74714" lon="8.67909">
        <ele>100</ele>
        <time>2021-07-05T14:31:59+02:00</time>
      </trkpt>
      <trkpt lat="41.74707" lon="8.67902">
        <ele>103</ele>
        <time>2021-07-05T14:32:04+02:00</time>
      </trkpt>
      <trkpt lat="41.74699" lon="8.67894">
        <ele>107</ele>
        <time>2021-07-05T14:32:09+02:00</time>
      </trkpt>
      <trkpt lat="41.74715" lon="8.67868">
        <ele>107</ele>
        <time>2021-07-05T14:32:14+02:00</time>
      </trkpt>
      <trkpt lat="41.74724" lon="8.6783">
        <ele>111</ele>
        <time>2021-07-05T14:32:19+02:00</time>
      </trkpt>
      <trkpt lat="41.74742" lon="8.67801">
        <ele>111</ele>
        <time>2021-07-05T14:32:24+02:00</time>
      </trkpt>
      <trkpt lat="41.74765" lon="8.6778">
        <ele>106</ele>
        <time>2021-07-05T14:32:29+02:00</time>
      </trkpt>
      <trkpt lat="41.74772" lon="8.67763">
        <ele>106</ele>
        <time>2021-07-05T14:32:34+02:00</time>
      </trkpt>
      <trkpt lat="41.74781" lon="8.6773">
        <ele>106</ele>
        <time>2021-07-05T14:32:39+02:00</time>
      </trkpt>
      <trkpt lat="41.74782" lon="8.67701">
        <ele>109</ele>
        <time>2021-07-05T14:32:44+02:00</time>
      </trkpt>
      <trkpt lat="41.74784" lon="8.67655">
        <ele>113</ele>
        <time>2021-07-05T14:32:49+02:00</time>
      </trkpt>
      <trkpt lat="41.7479" lon="8.67631">
        <ele>115</ele>
        <time>2021-07-05T14:32:54+02:00</time>
      </trkpt>
      <trkpt lat="41.74805" lon="8.67612">
        <ele>115</ele>
        <time>2021-07-05T14:32:59+02:00</time>
      </trkpt>
      <trkpt lat="41.74843" lon="8.67593">
        <ele>114</ele>
        <time>2021-07-05T14:33:04+02:00</time>
      </trkpt>
      <trkpt lat="41.74864" lon="8.67593">
        <ele>114</ele>
        <time>2021-07-05T14:33:09+02:00</time>
      </trkpt>
      <trkpt lat="41.74873" lon="8.67606">
        <ele>111</ele>
        <time>2021-07-05T14:33:14+02:00</time>
      </trkpt>
      <trkpt lat="41.74905" lon="8.67616">
        <ele>110</ele>
        <time>2021-07-05T14:33:19+02:00</time>
      </trkpt>
      <trkpt lat="41.7494" lon="8.67629">
        <ele>100</ele>
        <time>2021-07-05T14:33:24+02:00</time>
      </trkpt>
      <trkpt lat="41.74953" lon="8.6764">
        <ele>95</ele>
        <time>2021-07-05T14:33:29+02:00</time>
      </trkpt>
      <trkpt lat="41.74964" lon="8.6764">
        <ele>92</ele>
        <time>2021-07-05T14:33:34+02:00</time>
      </trkpt>
      <trkpt lat="41.74976" lon="8.67648">
        <ele>88</ele>
        <time>2021-07-05T14:33:39+02:00</time>
      </trkpt>
      <trkpt lat="41.74979" lon="8.67645">
        <ele>87</ele>
        <time>2021-07-05T14:33:44+02:00</time>
      </trkpt>
      <trkpt lat="41.74982" lon="8.67641">
        <ele>87</ele>
        <time>2021-07-05T14:33:49+02:00</time>
      </trkpt>
      <trkpt lat="41.74975" lon="8.67636">
        <ele>89</ele>
        <time>2021-07-05T14:33:54+02:00</time>
      </trkpt>
      <trkpt lat="41.74967" lon="8.67632">
        <ele>92</ele>
        <time>2021-07-05T14:33:59+02:00</time>
      </trkpt>
      <trkpt lat="41.74962" lon="8.67634">
        <ele>93</ele>
        <time>2021-07-05T14:34:04+02:00</time>
      </trkpt>
      <trkpt lat="41.7495" lon="8.67625">
        <ele>98</ele>
        <time>2021-07-05T14:34:09+02:00</time>
      </trkpt>
      <trkpt lat="41.7494" lon="8.67611">
        <ele>104</ele>
        <time>2021-07-05T14:34:14+02:00</time>
      </trkpt>
      <trkpt lat="41.74938" lon="8.67593">
        <ele>108</ele>
        <time>2021-07-05T14:34:19+02:00</time>
      </trkpt>
      <trkpt lat="41.74932" lon="8.67586">
        <ele>111</ele>
        <time>2021-07-05T14:34:24+02:00</time>
      </trkpt>
      <trkpt lat="41.74921" lon="8.67534">
        <ele>122</ele>
        <time>2021-07-05T14:34:29+02:00</time>
      </trkpt>
      <trkpt lat="41.74917" lon="8.67505">
        <ele>127</ele>
        <time>2021-07-05T14:34:34+02:00</time>
      </trkpt>
      <trkpt lat="41.74914" lon="8.67496">
        <ele>129</ele>
        <time>2021-07-05T14:34:39+02:00</time>
      </trkpt>
      <trkpt lat="41.7491" lon="8.67496">
        <ele>129</ele>
        <time>2021-07-05T14:34:44+02:00</time>
      </trkpt>
      <trkpt lat="41.74905" lon="8.67495">
        <ele>130</ele>
        <time>2021-07-05T14:34:49+02:00</time>
      </trkpt>
      <trkpt lat="41.74899" lon="8.675">
        <ele>129</ele>
        <time>2021-07-05T14:34:54+02:00</time>
      </trkpt>
      <trkpt lat="41.74889" lon="8.67495">
        <ele>131</ele>
        <time>2021-07-05T14:34:59+02:00</time>
      </trkpt>
      <trkpt lat="41.7488" lon="8.67498">
        <ele>131</ele>
        <time>2021-07-05T14:35:04+02:00</time>
      </trkpt>
      <trkpt lat="41.74867" lon="8.67493">
        <ele>132</ele>
        <time>2021-07-05T14:35:09+02:00</time>
      </trkpt>
      <trkpt lat="41.74862" lon="8.67486">
        <ele>134</ele>
        <time>2021-07-05T14:35:14+02:00</time>
      </trkpt>
      <trkpt lat="41.74843" lon="8.67482">
        <ele>135</ele>
        <time>2021-07-05T14:35:19+02:00</time>
      </trkpt>
      <trkpt lat="41.74828" lon="8.67482">
        <ele>136</ele>
        <time>2021-07-05T14:35:24+02:00</time>
      </trkpt>
      <trkpt lat="41.74809" lon="8.67497">
        <ele>135</ele>
        <time>2021-07-05T14:35:29+02:00</time>
      </trkpt>
      <trkpt lat="41.74789" lon="8.67513">
        <ele>134</ele>
        <time>2021-07-05T14:35:34+02:00</time>
      </trkpt>
      <trkpt lat="41.74778" lon="8.67519">
        <ele>134</ele>
        <time>2021-07-05T14:35:39+02:00</time>
      </trkpt>
      <trkpt lat="41.74775" lon="8.67519">
        <ele>134</ele>
        <time>2021-07-05T14:35:44+02:00</time>
      </trkpt>
      <trkpt lat="41.74765" lon="8.67512">
        <ele>136</ele>
        <time>2021-07-05T14:35:49+02:00</time>
      </trkpt>
      <trkpt lat="41.74759" lon="8.67503">
        <ele>137</ele>
        <time>2021-07-05T14:35:54+02:00</time>
      </trkpt>
      <trkpt lat="41.74756" lon="8.67491">
        <ele>138</ele>
        <time>2021-07-05T14:35:59+02:00</time>
      </trkpt>
      <trkpt lat="41.74746" lon="8.67485">
        <ele>138</ele>
        <time>2021-07-05T14:36:04+02:00</time>
      </trkpt>
      <trkpt lat="41.74743" lon="8.67483">
        <ele>138</ele>
        <time>2021-07-05T14:36:09+02:00</time>
      </trkpt>
      <trkpt lat="41.74743" lon="8.67471">
        <ele>138</ele>
        <time>2021-07-05T14:36:14+02:00</time>
      </trkpt>
      <trkpt lat="41.74738" lon="8.67461">
        <ele>138</ele>
        <time>2021-07-05T14:36:19+02:00</time>
      </trkpt>
      <trkpt lat="41.74738" lon="8.67458">
        <ele>138</ele>
        <time>2021-07-05T14:36:24+02:00</time>
      </trkpt>
      <trkpt lat="41.74746" lon="8.67452">
        <ele>138</ele>
        <time>2021-07-05T14:36:29+02:00</time>
      </trkpt>
      <trkpt lat="41.74746" lon="8.67444">
        <ele>138</ele>
        <time>2021-07-05T14:36:34+02:00</time>
      </trkpt>
      <trkpt lat="41.74742" lon="8.67437">
        <ele>138</ele>
        <time>2021-07-05T14:36:39+02:00</time>
      </trkpt>
      <trkpt lat="41.74742" lon="8.67432">
        <ele>138</ele>
        <time>2021-07-05T14:36:44+02:00</time>
      </trkpt>
      <trkpt lat="41.74745" lon="8.6742">
        <ele>139</ele>
        <time>2021-07-05T14:36:49+02:00</time>
      </trkpt>
      <trkpt lat="41.7474" lon="8.67413">
        <ele>138</ele>
        <time>2021-07-05T14:36:54+02:00</time>
      </trkpt>
      <trkpt lat="41.74743" lon="8.67401">
        <ele>139</ele>
        <time>2021-07-05T14:36:59+02:00</time>
      </trkpt>
      <trkpt lat="41.7474" lon="8.67389">
        <ele>138</ele>
        <time>2021-07-05T14:37:04+02:00</time>
      </trkpt>
      <trkpt lat="41.74743" lon="8.67375">
        <ele>139</ele>
        <time>2021-07-05T14:37:09+02:00</time>
      </trkpt>
      <trkpt lat="41.74736" lon="8.67353">
        <ele>138</ele>
        <time>2021-07-05T14:37:14+02:00</time>
      </trkpt>
      <trkpt lat="41.74735" lon="8.67338">
        <ele>139</ele>
        <time>2021-07-05T14:37:19+02:00</time>
      </trkpt>
      <trkpt lat="41.74735" lon="8.67328">
        <ele>139</ele>
        <time>2021-07-05T14:37:24+02:00</time>
      </trkpt>
      <trkpt lat="41.74738" lon="8.67312">
        <ele>141</ele>
        <time>2021-07-05T14:37:29+02:00</time>
      </trkpt>
      <trkpt lat="41.74737" lon="8.67304">
        <ele>141</ele>
        <time>2021-07-05T14:37:34+02:00</time>
      </trkpt>
      <trkpt lat="41.74735" lon="8.67291">
        <ele>142</ele>
        <time>2021-07-05T14:37:39+02:00</time>
      </trkpt>
      <trkpt lat="41.74732" lon="8.67281">
        <ele>143</ele>
        <time>2021-07-05T14:37:44+02:00</time>
      </trkpt>
      <trkpt lat="41.74728" lon="8.67269">
        <ele>143</ele>
        <time>2021-07-05T14:37:49+02:00</time>
      </trkpt>
      <trkpt lat="41.74728" lon="8.67245">
        <ele>145</ele>
        <time>2021-07-05T14:37:54+02:00</time>
      </trkpt>
      <trkpt lat="41.74728" lon="8.67242">
        <ele>145</ele>
        <time>2021-07-05T14:37:59+02:00</time>
      </trkpt>
      <trkpt lat="41.74716" lon="8.67237">
        <ele>143</ele>
        <time>2021-07-05T14:38:04+02:00</time>
      </trkpt>
      <trkpt lat="41.7471" lon="8.67231">
        <ele>143</ele>
        <time>2021-07-05T14:38:09+02:00</time>
      </trkpt>
      <trkpt lat="41.74708" lon="8.67218">
        <ele>144</ele>
        <time>2021-07-05T14:38:14+02:00</time>
      </trkpt>
      <trkpt lat="41.74694" lon="8.67205">
        <ele>142</ele>
        <time>2021-07-05T14:38:19+02:00</time>
      </trkpt>
      <trkpt lat="41.74685" lon="8.67169">
        <ele>143</ele>
        <time>2021-07-05T14:38:24+02:00</time>
      </trkpt>
      <trkpt lat="41.74675" lon="8.67142">
        <ele>142</ele>
        <time>2021-07-05T14:38:29+02:00</time>
      </trkpt>
      <trkpt lat="41.74672" lon="8.67123">
        <ele>142</ele>
        <time>2021-07-05T14:38:34+02:00</time>
      </trkpt>
      <trkpt lat="41.74672" lon="8.67105">
        <ele>143</ele>
        <time>2021-07-05T14:38:39+02:00</time>
      </trkpt>
      <trkpt lat="41.74668" lon="8.6709">
        <ele>144</ele>
        <time>2021-07-05T14:38:44+02:00</time>
      </trkpt>
      <trkpt lat="41.74672" lon="8.67065">
        <ele>144</ele>
        <time>2021-07-05T14:38:49+02:00</time>
      </trkpt>
      <trkpt lat="41.74664" lon="8.67038">
        <ele>142</ele>
        <time>2021-07-05T14:38:54+02:00</time>
      </trkpt>
      <trkpt lat="41.74665" lon="8.67028">
        <ele>142</ele>
        <time>2021-07-05T14:38:59+02:00</time>
      </trkpt>
      <trkpt lat="41.7466" lon="8.67017">
        <ele>141</ele>
        <time>2021-07-05T14:39:04+02:00</time>
      </trkpt>
      <trkpt lat="41.74651" lon="8.67012">
        <ele>138</ele>
        <time>2021-07-05T14:39:09+02:00</time>
      </trkpt>
      <trkpt lat="41.7465" lon="8.66997">
        <ele>138</ele>
        <time>2021-07-05T14:39:14+02:00</time>
      </trkpt>
      <trkpt lat="41.74643" lon="8.66978">
        <ele>135</ele>
        <time>2021-07-05T14:39:19+02:00</time>
      </trkpt>
      <trkpt lat="41.74641" lon="8.66965">
        <ele>134</ele>
        <time>2021-07-05T14:39:24+02:00</time>
      </trkpt>
      <trkpt lat="41.7464" lon="8.6696">
        <ele>133</ele>
        <time>2021-07-05T14:39:29+02:00</time>
      </trkpt>
      <trkpt lat="41.74627" lon="8.66953">
        <ele>131</ele>
        <time>2021-07-05T14:39:34+02:00</time>
      </trkpt>
      <trkpt lat="41.74627" lon="8.66948">
        <ele>131</ele>
        <time>2021-07-05T14:39:39+02:00</time>
      </trkpt>
      <trkpt lat="41.74628" lon="8.66934">
        <ele>130</ele>
        <time>2021-07-05T14:39:44+02:00</time>
      </trkpt>
      <trkpt lat="41.74628" lon="8.66929">
        <ele>130</ele>
        <time>2021-07-05T14:39:49+02:00</time>
      </trkpt>
      <trkpt lat="41.74624" lon="8.66921">
        <ele>129</ele>
        <time>2021-07-05T14:39:54+02:00</time>
      </trkpt>
      <trkpt lat="41.74618" lon="8.66914">
        <ele>128</ele>
        <time>2021-07-05T14:39:59+02:00</time>
      </trkpt>
      <trkpt lat="41.74617" lon="8.6689">
        <ele>126</ele>
        <time>2021-07-05T14:40:04+02:00</time>
      </trkpt>
      <trkpt lat="41.74614" lon="8.66868">
        <ele>125</ele>
        <time>2021-07-05T14:40:09+02:00</time>
      </trkpt>
      <trkpt lat="41.74617" lon="8.66855">
        <ele>124</ele>
        <time>2021-07-05T14:40:14+02:00</time>
      </trkpt>
      <trkpt lat="41.74608" lon="8.66828">
        <ele>121</ele>
        <time>2021-07-05T14:40:19+02:00</time>
      </trkpt>
      <trkpt lat="41.74602" lon="8.66797">
        <ele>117</ele>
        <time>2021-07-05T14:40:24+02:00</time>
      </trkpt>
      <trkpt lat="41.74598" lon="8.6679">
        <ele>116</ele>
        <time>2021-07-05T14:40:29+02:00</time>
      </trkpt>
      <trkpt lat="41.74597" lon="8.66769">
        <ele>113</ele>
        <time>2021-07-05T14:40:34+02:00</time>
      </trkpt>
      <trkpt lat="41.74586" lon="8.66722">
        <ele>109</ele>
        <time>2021-07-05T14:40:39+02:00</time>
      </trkpt>
      <trkpt lat="41.74582" lon="8.66704">
        <ele>108</ele>
        <time>2021-07-05T14:40:44+02:00</time>
      </trkpt>
      <trkpt lat="41.74578" lon="8.66695">
        <ele>106</ele>
        <time>2021-07-05T14:40:49+02:00</time>
      </trkpt>
      <trkpt lat="41.74577" lon="8.66681">
        <ele>105</ele>
        <time>2021-07-05T14:40:54+02:00</time>
      </trkpt>
      <trkpt lat="41.74569" lon="8.66644">
        <ele>101</ele>
        <time>2021-07-05T14:40:59+02:00</time>
      </trkpt>
      <trkpt lat="41.74563" lon="8.66628">
        <ele>99</ele>
        <time>2021-07-05T14:41:04+02:00</time>
      </trkpt>
      <trkpt lat="41.74554" lon="8.66616">
        <ele>97</ele>
        <time>2021-07-05T14:41:09+02:00</time>
      </trkpt>
      <trkpt lat="41.74549" lon="8.66605">
        <ele>96</ele>
        <time>2021-07-05T14:41:14+02:00</time>
      </trkpt>
      <trkpt lat="41.74548" lon="8.66594">
        <ele>95</ele>
        <time>2021-07-05T14:41:19+02:00</time>
      </trkpt>
      <trkpt lat="41.74534" lon="8.66586">
        <ele>93</ele>
        <time>2021-07-05T14:41:24+02:00</time>
      </trkpt>
      <trkpt lat="41.74522" lon="8.66573">
        <ele>92</ele>
        <time>2021-07-05T14:41:29+02:00</time>
      </trkpt>
      <trkpt lat="41.74524" lon="8.66556">
        <ele>91</ele>
        <time>2021-07-05T14:41:34+02:00</time>
      </trkpt>
      <trkpt lat="41.74512" lon="8.66554">
        <ele>90</ele>
        <time>2021-07-05T14:41:39+02:00</time>
      </trkpt>
      <trkpt lat="41.74513" lon="8.66538">
        <ele>89</ele>
        <time>2021-07-05T14:41:44+02:00</time>
      </trkpt>
      <trkpt lat="41.74506" lon="8.66523">
        <ele>88</ele>
        <time>2021-07-05T14:41:49+02:00</time>
      </trkpt>
      <trkpt lat="41.74498" lon="8.66525">
        <ele>87</ele>
        <time>2021-07-05T14:41:54+02:00</time>
      </trkpt>
      <trkpt lat="41.74494" lon="8.66523">
        <ele>85</ele>
        <time>2021-07-05T14:41:59+02:00</time>
      </trkpt>
      <trkpt lat="41.74504" lon="8.66489">
        <ele>85</ele>
        <time>2021-07-05T14:42:04+02:00</time>
      </trkpt>
      <trkpt lat="41.74489" lon="8.66467">
        <ele>79</ele>
        <time>2021-07-05T14:42:09+02:00</time>
      </trkpt>
      <trkpt lat="41.74489" lon="8.66461">
        <ele>79</ele>
        <time>2021-07-05T14:42:14+02:00</time>
      </trkpt>
      <trkpt lat="41.74494" lon="8.66444">
        <ele>78</ele>
        <time>2021-07-05T14:42:19+02:00</time>
      </trkpt>
      <trkpt lat="41.74492" lon="8.66436">
        <ele>77</ele>
        <time>2021-07-05T14:42:24+02:00</time>
      </trkpt>
      <trkpt lat="41.74486" lon="8.66427">
        <ele>75</ele>
        <time>2021-07-05T14:42:29+02:00</time>
      </trkpt>
      <trkpt lat="41.74476" lon="8.66427">
        <ele>74</ele>
        <time>2021-07-05T14:42:34+02:00</time>
      </trkpt>
      <trkpt lat="41.74474" lon="8.66422">
        <ele>73</ele>
        <time>2021-07-05T14:42:39+02:00</time>
      </trkpt>
      <trkpt lat="41.74478" lon="8.66396">
        <ele>72</ele>
        <time>2021-07-05T14:42:44+02:00</time>
      </trkpt>
      <trkpt lat="41.74491" lon="8.66384">
        <ele>72</ele>
        <time>2021-07-05T14:42:49+02:00</time>
      </trkpt>
      <trkpt lat="41.74489" lon="8.66348">
        <ele>70</ele>
        <time>2021-07-05T14:42:54+02:00</time>
      </trkpt>
      <trkpt lat="41.74484" lon="8.66336">
        <ele>69</ele>
        <time>2021-07-05T14:42:59+02:00</time>
      </trkpt>
      <trkpt lat="41.74484" lon="8.66334">
        <ele>69</ele>
        <time>2021-07-05T14:43:04+02:00</time>
      </trkpt>
      <trkpt lat="41.74492" lon="8.66322">
        <ele>69</ele>
        <time>2021-07-05T14:43:09+02:00</time>
      </trkpt>
      <trkpt lat="41.74488" lon="8.6631">
        <ele>67</ele>
        <time>2021-07-05T14:43:14+02:00</time>
      </trkpt>
      <trkpt lat="41.74483" lon="8.66306">
        <ele>67</ele>
        <time>2021-07-05T14:43:19+02:00</time>
      </trkpt>
      <trkpt lat="41.74479" lon="8.66278">
        <ele>64</ele>
        <time>2021-07-05T14:43:24+02:00</time>
      </trkpt>
      <trkpt lat="41.74477" lon="8.66274">
        <ele>63</ele>
        <time>2021-07-05T14:43:29+02:00</time>
      </trkpt>
      <trkpt lat="41.74467" lon="8.66279">
        <ele>63</ele>
        <time>2021-07-05T14:43:34+02:00</time>
      </trkpt>
      <trkpt lat="41.74458" lon="8.66274">
        <ele>61</ele>
        <time>2021-07-05T14:43:39+02:00</time>
      </trkpt>
      <trkpt lat="41.74468" lon="8.66257">
        <ele>61</ele>
        <time>2021-07-05T14:43:44+02:00</time>
      </trkpt>
      <trkpt lat="41.74464" lon="8.66235">
        <ele>57</ele>
        <time>2021-07-05T14:43:49+02:00</time>
      </trkpt>
      <trkpt lat="41.74464" lon="8.66222">
        <ele>55</ele>
        <time>2021-07-05T14:43:54+02:00</time>
      </trkpt>
      <trkpt lat="41.7447" lon="8.66217">
        <ele>55</ele>
        <time>2021-07-05T14:43:59+02:00</time>
      </trkpt>
      <trkpt lat="41.74466" lon="8.66201">
        <ele>53</ele>
        <time>2021-07-05T14:44:04+02:00</time>
      </trkpt>
      <trkpt lat="41.74455" lon="8.66193">
        <ele>50</ele>
        <time>2021-07-05T14:44:09+02:00</time>
      </trkpt>
      <trkpt lat="41.74445" lon="8.66193">
        <ele>48</ele>
        <time>2021-07-05T14:44:14+02:00</time>
      </trkpt>
      <trkpt lat="41.74436" lon="8.662">
        <ele>48</ele>
        <time>2021-07-05T14:44:19+02:00</time>
      </trkpt>
      <trkpt lat="41.74428" lon="8.66196">
        <ele>46</ele>
        <time>2021-07-05T14:44:24+02:00</time>
      </trkpt>
      <trkpt lat="41.74428" lon="8.66179">
        <ele>43</ele>
        <time>2021-07-05T14:44:29+02:00</time>
      </trkpt>
      <trkpt lat="41.74434" lon="8.66165">
        <ele>42</ele>
        <time>2021-07-05T14:44:34+02:00</time>
      </trkpt>
      <trkpt lat="41.74428" lon="8.66159">
        <ele>40</ele>
        <time>2021-07-05T14:44:39+02:00</time>
      </trkpt>
      <trkpt lat="41.74427" lon="8.66154">
        <ele>39</ele>
        <time>2021-07-05T14:44:44+02:00</time>
      </trkpt>
      <trkpt lat="41.74429" lon="8.66148">
        <ele>38</ele>
        <time>2021-07-05T14:44:49+02:00</time>
      </trkpt>
      <trkpt lat="41.74438" lon="8.66149">
        <ele>40</ele>
        <time>2021-07-05T14:44:54+02:00</time>
      </trkpt>
      <trkpt lat="41.74443" lon="8.66141">
        <ele>40</ele>
        <time>2021-07-05T14:44:59+02:00</time>
      </trkpt>
      <trkpt lat="41.74438" lon="8.66131">
        <ele>37</ele>
        <time>2021-07-05T14:45:04+02:00</time>
      </trkpt>
      <trkpt lat="41.74427" lon="8.66131">
        <ele>35</ele>
        <time>2021-07-05T14:45:09+02:00</time>
      </trkpt>
      <trkpt lat="41.74405" lon="8.66115">
        <ele>31</ele>
        <time>2021-07-05T14:45:14+02:00</time>
      </trkpt>
      <trkpt lat="41.74406" lon="8.66103">
        <ele>29</ele>
        <time>2021-07-05T14:45:19+02:00</time>
      </trkpt>
      <trkpt lat="41.74413" lon="8.66092">
        <ele>27</ele>
        <time>2021-07-05T14:45:24+02:00</time>
      </trkpt>
      <trkpt lat="41.74409" lon="8.66082">
        <ele>25</ele>
        <time>2021-07-05T14:45:29+02:00</time>
      </trkpt>
      <trkpt lat="41.74409" lon="8.66065">
        <ele>22</ele>
        <time>2021-07-05T14:45:34+02:00</time>
      </trkpt>
      <trkpt lat="41.74383" lon="8.66042">
        <ele>19</ele>
        <time>2021-07-05T14:45:39+02:00</time>
      </trkpt>
      <trkpt lat="41.74377" lon="8.66034">
        <ele>18</ele>
        <time>2021-07-05T14:45:44+02:00</time>
      </trkpt>
      <trkpt lat="41.74367" lon="8.6603">
        <ele>17</ele>
        <time>2021-07-05T14:45:49+02:00</time>
      </trkpt>
      <trkpt lat="41.74371" lon="8.6601">
        <ele>12</ele>
        <time>2021-07-05T14:45:54+02:00</time>
      </trkpt>
      <trkpt lat="41.74357" lon="8.6599">
        <ele>9</ele>
        <time>2021-07-05T14:45:59+02:00</time>
      </trkpt>
      <trkpt lat="41.74334" lon="8.66003">
        <ele>11</ele>
        <time>2021-07-05T14:46:04+02:00</time>
      </trkpt>
      <trkpt lat="41.74319" lon="8.66003">
        <ele>12</ele>
        <time>2021-07-05T14:46:09+02:00</time>
      </trkpt>
      <trkpt lat="41.74305" lon="8.65984">
        <ele>10</ele>
        <time>2021-07-05T14:46:14+02:00</time>
      </trkpt>
      <trkpt lat="41.74284" lon="8.65988">
        <ele>12</ele>
        <time>2021-07-05T14:46:19+02:00</time>
      </trkpt>
      <trkpt lat="41.74268" lon="8.65981">
        <ele>11</ele>
        <time>2021-07-05T14:46:24+02:00</time>
      </trkpt>
      <trkpt lat="41.74245" lon="8.65978">
        <ele>12</ele>
        <time>2021-07-05T14:46:29+02:00</time>
      </trkpt>
      <trkpt lat="41.74235" lon="8.65973">
        <ele>12</ele>
        <time>2021-07-05T14:46:34+02:00</time>
      </trkpt>
      <trkpt lat="41.74219" lon="8.65974">
        <ele>14</ele>
        <time>2021-07-05T14:46:39+02:00</time>
      </trkpt>
      <trkpt lat="41.74197" lon="8.65966">
        <ele>15</ele>
        <time>2021-07-05T14:46:44+02:00</time>
      </trkpt>
      <trkpt lat="41.74191" lon="8.65943">
        <ele>10</ele>
        <time>2021-07-05T14:46:49+02:00</time>
      </trkpt>
      <trkpt lat="41.74179" lon="8.65923">
        <ele>6</ele>
        <time>2021-07-05T14:46:54+02:00</time>
      </trkpt>
      <trkpt lat="41.74165" lon="8.65922">
        <ele>7</ele>
        <time>2021-07-05T14:46:59+02:00</time>
      </trkpt>
      <trkpt lat="41.74143" lon="8.65926">
        <ele>7</ele>
        <time>2021-07-05T14:47:04+02:00</time>
      </trkpt>
      <trkpt lat="41.74125" lon="8.6593">
        <ele>7</ele>
        <time>2021-07-05T14:47:09+02:00</time>
      </trkpt>
      <trkpt lat="41.74114" lon="8.65944">
        <ele>9</ele>
        <time>2021-07-05T14:47:14+02:00</time>
      </trkpt>
      <trkpt lat="41.74093" lon="8.65946">
        <ele>8</ele>
        <time>2021-07-05T14:47:19+02:00</time>
      </trkpt>
      <trkpt lat="41.74089" lon="8.65947">
        <ele>7</ele>
        <time>2021-07-05T14:47:24+02:00</time>
      </trkpt>
      <trkpt lat="41.74071" lon="8.65961">
        <ele>7</ele>
        <time>2021-07-05T14:47:29+02:00</time>
      </trkpt>
      <trkpt lat="41.74054" lon="8.65985">
        <ele>7</ele>
        <time>2021-07-05T14:47:34+02:00</time>
      </trkpt>
      <trkpt lat="41.74048" lon="8.65997">
        <ele>8</ele>
        <time>2021-07-05T14:47:39+02:00</time>
      </trkpt>
      <trkpt lat="41.74043" lon="8.66019">
        <ele>9</ele>
        <time>2021-07-05T14:47:44+02:00</time>
      </trkpt>
      <trkpt lat="41.74039" lon="8.66038">
        <ele>11</ele>
        <time>2021-07-05T14:47:49+02:00</time>
      </trkpt>
      <trkpt lat="41.7402" lon="8.66047">
        <ele>10</ele>
        <time>2021-07-05T14:47:54+02:00</time>
      </trkpt>
      <trkpt lat="41.74014" lon="8.66052">
        <ele>10</ele>
        <time>2021-07-05T14:47:59+02:00</time>
      </trkpt>
      <trkpt lat="41.73995" lon="8.6606">
        <ele>9</ele>
        <time>2021-07-05T14:48:04+02:00</time>
      </trkpt>
      <trkpt lat="41.73982" lon="8.66064">
        <ele>7</ele>
        <time>2021-07-05T14:48:09+02:00</time>
      </trkpt>
      <trkpt lat="41.73972" lon="8.66074">
        <ele>7</ele>
        <time>2021-07-05T14:48:14+02:00</time>
      </trkpt>
      <trkpt lat="41.73973" lon="8.66091">
        <ele>8</ele>
        <time>2021-07-05T14:48:19+02:00</time>
      </trkpt>
      <trkpt lat="41.73973" lon="8.66107">
        <ele>8</ele>
        <time>2021-07-05T14:48:24+02:00</time>
      </trkpt>
      <trkpt lat="41.73973" lon="8.66119">
        <ele>8</ele>
        <time>2021-07-05T14:48:29+02:00</time>
      </trkpt>
      <trkpt lat="41.73978" lon="8.66139">
        <ele>9</ele>
        <time>2021-07-05T14:48:34+02:00</time>
      </trkpt>
      <trkpt lat="41.73981" lon="8.66143">
        <ele>10</ele>
        <time>2021-07-05T14:48:39+02:00</time>
      </trkpt>
      <trkpt lat="41.73984" lon="8.66162">
        <ele>10</ele>
        <time>2021-07-05T14:48:44+02:00</time>
      </trkpt>
      <trkpt lat="41.73998" lon="8.66177">
        <ele>11</ele>
        <time>2021-07-05T14:48:49+02:00</time>
      </trkpt>
      <trkpt lat="41.74043" lon="8.66202">
        <ele>18</ele>
        <time>2021-07-05T14:48:54+02:00</time>
      </trkpt>
      <trkpt lat="41.74056" lon="8.66205">
        <ele>21</ele>
        <time>2021-07-05T14:48:59+02:00</time>
      </trkpt>
      <trkpt lat="41.74065" lon="8.66224">
        <ele>22</ele>
        <time>2021-07-05T14:49:04+02:00</time>
      </trkpt>
      <trkpt lat="41.74062" lon="8.66229">
        <ele>21</ele>
        <time>2021-07-05T14:49:09+02:00</time>
      </trkpt>
      <trkpt lat="41.74063" lon="8.66251">
        <ele>18</ele>
        <time>2021-07-05T14:49:14+02:00</time>
      </trkpt>
      <trkpt lat="41.74076" lon="8.66272">
        <ele>18</ele>
        <time>2021-07-05T14:49:19+02:00</time>
      </trkpt>
      <trkpt lat="41.74082" lon="8.66294">
        <ele>14</ele>
        <time>2021-07-05T14:49:24+02:00</time>
      </trkpt>
      <trkpt lat="41.74146" lon="8.66369">
        <ele>18</ele>
        <time>2021-07-05T14:49:29+02:00</time>
      </trkpt>
      <trkpt lat="41.74161" lon="8.66387">
        <ele>16</ele>
        <time>2021-07-05T14:49:34+02:00</time>
      </trkpt>
      <trkpt lat="41.74169" lon="8.66408">
        <ele>11</ele>
        <time>2021-07-05T14:49:39+02:00</time>
      </trkpt>
      <trkpt lat="41.74197" lon="8.66447">
        <ele>12</ele>
        <time>2021-07-05T14:49:44+02:00</time>
      </trkpt>
      <trkpt lat="41.74199" lon="8.66457">
        <ele>10</ele>
        <time>2021-07-05T14:49:49+02:00</time>
      </trkpt>
      <trkpt lat="41.74206" lon="8.66475">
        <ele>9</ele>
        <time>2021-07-05T14:49:54+02:00</time>
      </trkpt>
      <trkpt lat="41.74207" lon="8.66482">
        <ele>8</ele>
        <time>2021-07-05T14:49:59+02:00</time>
      </trkpt>
      <trkpt lat="41.74216" lon="8.66499">
        <ele>5</ele>
        <time>2021-07-05T14:50:04+02:00</time>
      </trkpt>
      <trkpt lat="41.74254" lon="8.66506">
        <ele>9</ele>
        <time>2021-07-05T14:50:09+02:00</time>
      </trkpt>
      <trkpt lat="41.74267" lon="8.66514">
        <ele>11</ele>
        <time>2021-07-05T14:50:14+02:00</time>
      </trkpt>
      <trkpt lat="41.74284" lon="8.66517">
        <ele>15</ele>
        <time>2021-07-05T14:50:19+02:00</time>
      </trkpt>
      <trkpt lat="41.74322" lon="8.66551">
        <ele>18</ele>
        <time>2021-07-05T14:50:24+02:00</time>
      </trkpt>
      <trkpt lat="41.74336" lon="8.66552">
        <ele>21</ele>
        <time>2021-07-05T14:50:29+02:00</time>
      </trkpt>
      <trkpt lat="41.74347" lon="8.66565">
        <ele>23</ele>
        <time>2021-07-05T14:50:34+02:00</time>
      </trkpt>
      <trkpt lat="41.7435" lon="8.66571">
        <ele>24</ele>
        <time>2021-07-05T14:50:39+02:00</time>
      </trkpt>
      <trkpt lat="41.74359" lon="8.66576">
        <ele>26</ele>
        <time>2021-07-05T14:50:44+02:00</time>
      </trkpt>
      <trkpt lat="41.74361" lon="8.66586">
        <ele>26</ele>
        <time>2021-07-05T14:50:49+02:00</time>
      </trkpt>
      <trkpt lat="41.74361" lon="8.66597">
        <ele>25</ele>
        <time>2021-07-05T14:50:54+02:00</time>
      </trkpt>
      <trkpt lat="41.74369" lon="8.66609">
        <ele>27</ele>
        <time>2021-07-05T14:50:59+02:00</time>
      </trkpt>
      <trkpt lat="41.7437" lon="8.66617">
        <ele>27</ele>
        <time>2021-07-05T14:51:04+02:00</time>
      </trkpt>
      <trkpt lat="41.74367" lon="8.66639">
        <ele>25</ele>
        <time>2021-07-05T14:51:09+02:00</time>
      </trkpt>
      <trkpt lat="41.74365" lon="8.6666">
        <ele>23</ele>
        <time>2021-07-05T14:51:14+02:00</time>
      </trkpt>
      <trkpt lat="41.74363" lon="8.66672">
        <ele>21</ele>
        <time>2021-07-05T14:51:19+02:00</time>
      </trkpt>
      <trkpt lat="41.74367" lon="8.66692">
        <ele>22</ele>
        <time>2021-07-05T14:51:24+02:00</time>
      </trkpt>
      <trkpt lat="41.74363" lon="8.6674">
        <ele>17</ele>
        <time>2021-07-05T14:51:29+02:00</time>
      </trkpt>
      <trkpt lat="41.7436" lon="8.66745">
        <ele>16</ele>
        <time>2021-07-05T14:51:34+02:00</time>
      </trkpt>
      <trkpt lat="41.7436" lon="8.66751">
        <ele>15</ele>
        <time>2021-07-05T14:51:39+02:00</time>
      </trkpt>
      <trkpt lat="41.74372" lon="8.6678">
        <ele>18</ele>
        <time>2021-07-05T14:51:44+02:00</time>
      </trkpt>
      <trkpt lat="41.74375" lon="8.66794">
        <ele>18</ele>
        <time>2021-07-05T14:51:49+02:00</time>
      </trkpt>
      <trkpt lat="41.74366" lon="8.66815">
        <ele>14</ele>
        <time>2021-07-05T14:51:54+02:00</time>
      </trkpt>
      <trkpt lat="41.74374" lon="8.66846">
        <ele>16</ele>
        <time>2021-07-05T14:51:59+02:00</time>
      </trkpt>
      <trkpt lat="41.74375" lon="8.6687">
        <ele>17</ele>
        <time>2021-07-05T14:52:04+02:00</time>
      </trkpt>
      <trkpt lat="41.74379" lon="8.66891">
        <ele>18</ele>
        <time>2021-07-05T14:52:09+02:00</time>
      </trkpt>
      <trkpt lat="41.74378" lon="8.66921">
        <ele>18</ele>
        <time>2021-07-05T14:52:14+02:00</time>
      </trkpt>
      <trkpt lat="41.74384" lon="8.66974">
        <ele>19</ele>
        <time>2021-07-05T14:52:19+02:00</time>
      </trkpt>
      <trkpt lat="41.74392" lon="8.67002">
        <ele>21</ele>
        <time>2021-07-05T14:52:24+02:00</time>
      </trkpt>
      <trkpt lat="41.7439" lon="8.67012">
        <ele>20</ele>
        <time>2021-07-05T14:52:29+02:00</time>
      </trkpt>
      <trkpt lat="41.74395" lon="8.67036">
        <ele>19</ele>
        <time>2021-07-05T14:52:34+02:00</time>
      </trkpt>
      <trkpt lat="41.744" lon="8.67041">
        <ele>20</ele>
        <time>2021-07-05T14:52:39+02:00</time>
      </trkpt>
      <trkpt lat="41.74402" lon="8.67052">
        <ele>20</ele>
        <time>2021-07-05T14:52:44+02:00</time>
      </trkpt>
      <trkpt lat="41.74399" lon="8.67066">
        <ele>17</ele>
        <time>2021-07-05T14:52:49+02:00</time>
      </trkpt>
      <trkpt lat="41.74401" lon="8.6708">
        <ele>16</ele>
        <time>2021-07-05T14:52:54+02:00</time>
      </trkpt>
      <trkpt lat="41.74401" lon="8.67188">
        <ele>17</ele>
        <time>2021-07-05T14:52:59+02:00</time>
      </trkpt>
      <trkpt lat="41.74391" lon="8.67235">
        <ele>18</ele>
        <time>2021-07-05T14:53:04+02:00</time>
      </trkpt>
      <trkpt lat="41.74388" lon="8.67243">
        <ele>18</ele>
        <time>2021-07-05T14:53:09+02:00</time>
      </trkpt>
      <trkpt lat="41.74384" lon="8.67253">
        <ele>17</ele>
        <time>2021-07-05T14:53:14+02:00</time>
      </trkpt>
      <trkpt lat="41.74377" lon="8.67269">
        <ele>17</ele>
        <time>2021-07-05T14:53:19+02:00</time>
      </trkpt>
      <trkpt lat="41.74374" lon="8.67292">
        <ele>18</ele>
        <time>2021-07-05T14:53:24+02:00</time>
      </trkpt>
      <trkpt lat="41.74367" lon="8.67293">
        <ele>15</ele>
        <time>2021-07-05T14:53:29+02:00</time>
      </trkpt>
      <trkpt lat="41.74348" lon="8.67318">
        <ele>10</ele>
        <time>2021-07-05T14:53:34+02:00</time>
      </trkpt>
      <trkpt lat="41.74341" lon="8.67322">
        <ele>8</ele>
        <time>2021-07-05T14:53:39+02:00</time>
      </trkpt>
      <trkpt lat="41.74332" lon="8.67338">
        <ele>7</ele>
        <time>2021-07-05T14:53:44+02:00</time>
      </trkpt>
      <trkpt lat="41.7432" lon="8.67346">
        <ele>7</ele>
        <time>2021-07-05T14:53:49+02:00</time>
      </trkpt>
      <trkpt lat="41.74312" lon="8.6736">
        <ele>8</ele>
        <time>2021-07-05T14:53:54+02:00</time>
      </trkpt>
      <trkpt lat="41.74313" lon="8.67374">
        <ele>10</ele>
        <time>2021-07-05T14:53:59+02:00</time>
      </trkpt>
      <trkpt lat="41.74309" lon="8.67401">
        <ele>13</ele>
        <time>2021-07-05T14:54:04+02:00</time>
      </trkpt>
      <trkpt lat="41.74297" lon="8.67428">
        <ele>13</ele>
        <time>2021-07-05T14:54:09+02:00</time>
      </trkpt>
      <trkpt lat="41.7429" lon="8.67447">
        <ele>14</ele>
        <time>2021-07-05T14:54:14+02:00</time>
      </trkpt>
      <trkpt lat="41.74291" lon="8.67459">
        <ele>16</ele>
        <time>2021-07-05T14:54:19+02:00</time>
      </trkpt>
      <trkpt lat="41.7429" lon="8.67466">
        <ele>16</ele>
        <time>2021-07-05T14:54:24+02:00</time>
      </trkpt>
      <trkpt lat="41.74277" lon="8.67486">
        <ele>14</ele>
        <time>2021-07-05T14:54:29+02:00</time>
      </trkpt>
      <trkpt lat="41.74277" lon="8.67494">
        <ele>14</ele>
        <time>2021-07-05T14:54:34+02:00</time>
      </trkpt>
      <trkpt lat="41.7428" lon="8.67501">
        <ele>16</ele>
        <time>2021-07-05T14:54:39+02:00</time>
      </trkpt>
      <trkpt lat="41.74278" lon="8.67509">
        <ele>16</ele>
        <time>2021-07-05T14:54:44+02:00</time>
      </trkpt>
      <trkpt lat="41.7428" lon="8.6752">
        <ele>18</ele>
        <time>2021-07-05T14:54:49+02:00</time>
      </trkpt>
      <trkpt lat="41.74279" lon="8.67525">
        <ele>18</ele>
        <time>2021-07-05T14:54:54+02:00</time>
      </trkpt>
      <trkpt lat="41.74271" lon="8.67534">
        <ele>15</ele>
        <time>2021-07-05T14:54:59+02:00</time>
      </trkpt>
      <trkpt lat="41.74269" lon="8.67539">
        <ele>14</ele>
        <time>2021-07-05T14:55:04+02:00</time>
      </trkpt>
      <trkpt lat="41.74271" lon="8.67558">
        <ele>17</ele>
        <time>2021-07-05T14:55:09+02:00</time>
      </trkpt>
      <trkpt lat="41.74269" lon="8.67571">
        <ele>17</ele>
        <time>2021-07-05T14:55:14+02:00</time>
      </trkpt>
      <trkpt lat="41.74272" lon="8.67581">
        <ele>19</ele>
        <time>2021-07-05T14:55:19+02:00</time>
      </trkpt>
      <trkpt lat="41.7427" lon="8.67591">
        <ele>18</ele>
        <time>2021-07-05T14:55:24+02:00</time>
      </trkpt>
      <trkpt lat="41.74267" lon="8.67603">
        <ele>17</ele>
        <time>2021-07-05T14:55:29+02:00</time>
      </trkpt>
      <trkpt lat="41.74268" lon="8.67616">
        <ele>18</ele>
        <time>2021-07-05T14:55:34+02:00</time>
      </trkpt>
      <trkpt lat="41.7426" lon="8.67631">
        <ele>15</ele>
        <time>2021-07-05T14:55:39+02:00</time>
      </trkpt>
      <trkpt lat="41.74256" lon="8.67645">
        <ele>13</ele>
        <time>2021-07-05T14:55:44+02:00</time>
      </trkpt>
      <trkpt lat="41.74255" lon="8.67662">
        <ele>13</ele>
        <time>2021-07-05T14:55:49+02:00</time>
      </trkpt>
      <trkpt lat="41.7425" lon="8.67669">
        <ele>11</ele>
        <time>2021-07-05T14:55:54+02:00</time>
      </trkpt>
      <trkpt lat="41.74253" lon="8.6769">
        <ele>13</ele>
        <time>2021-07-05T14:55:59+02:00</time>
      </trkpt>
      <trkpt lat="41.74243" lon="8.67702">
        <ele>11</ele>
        <time>2021-07-05T14:56:04+02:00</time>
      </trkpt>
      <trkpt lat="41.74239" lon="8.67722">
        <ele>10</ele>
        <time>2021-07-05T14:56:09+02:00</time>
      </trkpt>
      <trkpt lat="41.74239" lon="8.67745">
        <ele>10</ele>
        <time>2021-07-05T14:56:14+02:00</time>
      </trkpt>
      <trkpt lat="41.74238" lon="8.67758">
        <ele>10</ele>
        <time>2021-07-05T14:56:19+02:00</time>
      </trkpt>
      <trkpt lat="41.74241" lon="8.67802">
        <ele>11</ele>
        <time>2021-07-05T14:56:24+02:00</time>
      </trkpt>
      <trkpt lat="41.74243" lon="8.67806">
        <ele>11</ele>
        <time>2021-07-05T14:56:29+02:00</time>
      </trkpt>
      <trkpt lat="41.7424" lon="8.67823">
        <ele>10</ele>
        <time>2021-07-05T14:56:34+02:00</time>
      </trkpt>
      <trkpt lat="41.74239" lon="8.67849">
        <ele>12</ele>
        <time>2021-07-05T14:56:39+02:00</time>
      </trkpt>
      <trkpt lat="41.7423" lon="8.67889">
        <ele>13</ele>
        <time>2021-07-05T14:56:44+02:00</time>
      </trkpt>
      <trkpt lat="41.74252" lon="8.67911">
        <ele>19</ele>
        <time>2021-07-05T14:56:49+02:00</time>
      </trkpt>
      <trkpt lat="41.74262" lon="8.67926">
        <ele>26</ele>
        <time>2021-07-05T14:56:54+02:00</time>
      </trkpt>
      <trkpt lat="41.74276" lon="8.67941">
        <ele>34</ele>
        <time>2021-07-05T14:56:59+02:00</time>
      </trkpt>
      <trkpt lat="41.74277" lon="8.67957">
        <ele>36</ele>
        <time>2021-07-05T14:57:04+02:00</time>
      </trkpt>
      <trkpt lat="41.74291" lon="8.6796">
        <ele>41</ele>
        <time>2021-07-05T14:57:09+02:00</time>
      </trkpt>
      <trkpt lat="41.74305" lon="8.67984">
        <ele>48</ele>
        <time>2021-07-05T14:57:14+02:00</time>
      </trkpt>
      <trkpt lat="41.74306" lon="8.67999">
        <ele>49</ele>
        <time>2021-07-05T14:57:19+02:00</time>
      </trkpt>
      <trkpt lat="41.74306" lon="8.68008">
        <ele>49</ele>
        <time>2021-07-05T14:57:24+02:00</time>
      </trkpt>
      <trkpt lat="41.74313" lon="8.68017">
        <ele>50</ele>
        <time>2021-07-05T14:57:29+02:00</time>
      </trkpt>
      <trkpt lat="41.74334" lon="8.68023">
        <ele>55</ele>
        <time>2021-07-05T14:57:34+02:00</time>
      </trkpt>
      <trkpt lat="41.74344" lon="8.68032">
        <ele>57</ele>
        <time>2021-07-05T14:57:39+02:00</time>
      </trkpt>
      <trkpt lat="41.7435" lon="8.68044">
        <ele>57</ele>
        <time>2021-07-05T14:57:44+02:00</time>
      </trkpt>
      <trkpt lat="41.74363" lon="8.68046">
        <ele>61</ele>
        <time>2021-07-05T14:57:49+02:00</time>
      </trkpt>
      <trkpt lat="41.74365" lon="8.68037">
        <ele>62</ele>
        <time>2021-07-05T14:57:54+02:00</time>
      </trkpt>
      <trkpt lat="41.74364" lon="8.68014">
        <ele>64</ele>
        <time>2021-07-05T14:57:59+02:00</time>
      </trkpt>
      <trkpt lat="41.74376" lon="8.68015">
        <ele>68</ele>
        <time>2021-07-05T14:58:04+02:00</time>
      </trkpt>
      <trkpt lat="41.74397" lon="8.68029">
        <ele>72</ele>
        <time>2021-07-05T14:58:09+02:00</time>
      </trkpt>
      <trkpt lat="41.74419" lon="8.68033">
        <ele>78</ele>
        <time>2021-07-05T14:58:14+02:00</time>
      </trkpt>
      <trkpt lat="41.7443" lon="8.68055">
        <ele>77</ele>
        <time>2021-07-05T14:58:19+02:00</time>
      </trkpt>
      <trkpt lat="41.74438" lon="8.68053">
        <ele>80</ele>
        <time>2021-07-05T14:58:24+02:00</time>
      </trkpt>
      <trkpt lat="41.74466" lon="8.68044">
        <ele>90</ele>
        <time>2021-07-05T14:58:29+02:00</time>
      </trkpt>
      <trkpt lat="41.74486" lon="8.68045">
        <ele>96</ele>
        <time>2021-07-05T14:58:34+02:00</time>
      </trkpt>
      <trkpt lat="41.74505" lon="8.68055">
        <ele>99</ele>
        <time>2021-07-05T14:58:39+02:00</time>
      </trkpt>
      <trkpt lat="41.74518" lon="8.68064">
        <ele>99</ele>
        <time>2021-07-05T14:58:44+02:00</time>
      </trkpt>
      <trkpt lat="41.74548" lon="8.68024">
        <ele>108</ele>
        <time>2021-07-05T14:58:49+02:00</time>
      </trkpt>
      <trkpt lat="41.74555" lon="8.6802">
        <ele>109</ele>
        <time>2021-07-05T14:58:54+02:00</time>
      </trkpt>
      <trkpt lat="41.74558" lon="8.68024">
        <ele>108</ele>
        <time>2021-07-05T14:58:59+02:00</time>
      </trkpt>
      <trkpt lat="41.74565" lon="8.68042">
        <ele>108</ele>
        <time>2021-07-05T14:59:04+02:00</time>
      </trkpt>
      <trkpt lat="41.74559" lon="8.68058">
        <ele>106</ele>
        <time>2021-07-05T14:59:09+02:00</time>
      </trkpt>
      <trkpt lat="41.74559" lon="8.68081">
        <ele>104</ele>
        <time>2021-07-05T14:59:14+02:00</time>
      </trkpt>
      <trkpt lat="41.74563" lon="8.68105">
        <ele>103</ele>
        <time>2021-07-05T14:59:19+02:00</time>
      </trkpt>
      <trkpt lat="41.74556" lon="8.68177">
        <ele>94</ele>
        <time>2021-07-05T14:59:24+02:00</time>
      </trkpt>
      <trkpt lat="41.74551" lon="8.68224">
        <ele>88</ele>
        <time>2021-07-05T14:59:29+02:00</time>
      </trkpt>
      <trkpt lat="41.74547" lon="8.68241">
        <ele>85</ele>
        <time>2021-07-05T14:59:34+02:00</time>
      </trkpt>
      <trkpt lat="41.74546" lon="8.68283">
        <ele>83</ele>
        <time>2021-07-05T14:59:39+02:00</time>
      </trkpt>
      <trkpt lat="41.74536" lon="8.68368">
        <ele>84</ele>
        <time>2021-07-05T14:59:44+02:00</time>
      </trkpt>
      <trkpt lat="41.74519" lon="8.68391">
        <ele>89</ele>
        <time>2021-07-05T14:59:49+02:00</time>
      </trkpt>
      <trkpt lat="41.74471" lon="8.68409">
        <ele>89</ele>
        <time>2021-07-05T14:59:54+02:00</time>
      </trkpt>
      <trkpt lat="41.74462" lon="8.68454">
        <ele>92</ele>
        <time>2021-07-05T14:59:59+02:00</time>
      </trkpt>
      <trkpt lat="41.74469" lon="8.68491">
        <ele>97</ele>
        <time>2021-07-05T15:00:04+02:00</time>
      </trkpt>
      <trkpt lat="41.74481" lon="8.68523">
        <ele>101</ele>
        <time>2021-07-05T15:00:09+02:00</time>
      </trkpt>
      <trkpt lat="41.74503" lon="8.68529">
        <ele>106</ele>
        <time>2021-07-05T15:00:14+02:00</time>
      </trkpt>
      <trkpt lat="41.74508" lon="8.6857">
        <ele>107</ele>
        <time>2021-07-05T15:00:19+02:00</time>
      </trkpt>
      <trkpt lat="41.74531" lon="8.68623">
        <ele>110</ele>
        <time>2021-07-05T15:00:24+02:00</time>
      </trkpt>
      <trkpt lat="41.74526" lon="8.68645">
        <ele>110</ele>
        <time>2021-07-05T15:00:29+02:00</time>
      </trkpt>
      <trkpt lat="41.74535" lon="8.68696">
        <ele>111</ele>
        <time>2021-07-05T15:00:34+02:00</time>
      </trkpt>
      <trkpt lat="41.74543" lon="8.68741">
        <ele>111</ele>
        <time>2021-07-05T15:00:39+02:00</time>
      </trkpt>
      <trkpt lat="41.74575" lon="8.68796">
        <ele>116</ele>
        <time>2021-07-05T15:00:44+02:00</time>
      </trkpt>
      <trkpt lat="41.74551" lon="8.68858">
        <ele>112</ele>
        <time>2021-07-05T15:00:49+02:00</time>
      </trkpt>
      <trkpt lat="41.74529" lon="8.68935">
        <ele>114</ele>
        <time>2021-07-05T15:00:54+02:00</time>
      </trkpt>
      <trkpt lat="41.74523" lon="8.69006">
        <ele>118</ele>
        <time>2021-07-05T15:00:59+02:00</time>
      </trkpt>
      <trkpt lat="41.7452" lon="8.69073">
        <ele>117</ele>
        <time>2021-07-05T15:01:04+02:00</time>
      </trkpt>
      <trkpt lat="41.74511" lon="8.69116">
        <ele>114</ele>
        <time>2021-07-05T15:01:09+02:00</time>
      </trkpt>
      <trkpt lat="41.74538" lon="8.69192">
        <ele>112</ele>
        <time>2021-07-05T15:01:14+02:00</time>
      </trkpt>
      <trkpt lat="41.74551" lon="8.69227">
        <ele>110</ele>
        <time>2021-07-05T15:01:19+02:00</time>
      </trkpt>
      <trkpt lat="41.74587" lon="8.69275">
        <ele>115</ele>
        <time>2021-07-05T15:01:24+02:00</time>
      </trkpt>
      <trkpt lat="41.74602" lon="8.69268">
        <ele>116</ele>
        <time>2021-07-05T15:01:29+02:00</time>
      </trkpt>
      <trkpt lat="41.7461" lon="8.69263">
        <ele>117</ele>
        <time>2021-07-05T15:01:34+02:00</time>
      </trkpt>
      <trkpt lat="41.74615" lon="8.69274">
        <ele>119</ele>
        <time>2021-07-05T15:01:39+02:00</time>
      </trkpt>
      <trkpt lat="41.74609" lon="8.69289">
        <ele>119</ele>
        <time>2021-07-05T15:01:44+02:00</time>
      </trkpt>
      <trkpt lat="41.74553" lon="8.69339">
        <ele>112</ele>
        <time>2021-07-05T15:01:49+02:00</time>
      </trkpt>
      <trkpt lat="41.74537" lon="8.69374">
        <ele>110</ele>
        <time>2021-07-05T15:01:54+02:00</time>
      </trkpt>
      <trkpt lat="41.74535" lon="8.69403">
        <ele>112</ele>
        <time>2021-07-05T15:01:59+02:00</time>
      </trkpt>
      <trkpt lat="41.7455" lon="8.69441">
        <ele>117</ele>
        <time>2021-07-05T15:02:04+02:00</time>
      </trkpt>
      <trkpt lat="41.7454" lon="8.69466">
        <ele>114</ele>
        <time>2021-07-05T15:02:09+02:00</time>
      </trkpt>
      <trkpt lat="41.74533" lon="8.69511">
        <ele>110</ele>
        <time>2021-07-05T15:02:14+02:00</time>
      </trkpt>
      <trkpt lat="41.74531" lon="8.6954">
        <ele>107</ele>
        <time>2021-07-05T15:02:19+02:00</time>
      </trkpt>
      <trkpt lat="41.74535" lon="8.69566">
        <ele>106</ele>
        <time>2021-07-05T15:02:24+02:00</time>
      </trkpt>
      <trkpt lat="41.74573" lon="8.69597">
        <ele>110</ele>
        <time>2021-07-05T15:02:29+02:00</time>
      </trkpt>
      <trkpt lat="41.74585" lon="8.69618">
        <ele>111</ele>
        <time>2021-07-05T15:02:34+02:00</time>
      </trkpt>
      <trkpt lat="41.74585" lon="8.69648">
        <ele>110</ele>
        <time>2021-07-05T15:02:39+02:00</time>
      </trkpt>
      <trkpt lat="41.74581" lon="8.69648">
        <ele>109</ele>
        <time>2021-07-05T15:02:44+02:00</time>
      </trkpt>
    </trkseg>
  </trk>
</gpx>